createdAt,value
2022-12-26T00:01:07.627Z,99824.09
2022-12-26T00:04:50.679Z,99825.31
2022-12-26T00:07:30.739Z,99820.03
2022-12-26T00:10:32.203Z,99813.09
2022-12-26T00:13:39.789Z,99819.56
2022-12-26T00:16:44.618Z,99816.16
2022-12-26T00:19:46.279Z,99820.91
2022-12-26T00:22:47.786Z,99823.63
2022-12-26T00:25:49.318Z,99813.81
2022-12-26T00:28:53.999Z,99812.13
2022-12-26T00:31:55.574Z,99806.88
2022-12-26T00:34:57.087Z,99807.91
2022-12-26T00:37:58.539Z,99803.69
2022-12-26T00:41:00.129Z,99796.38
2022-12-26T00:44:01.716Z,99797.56
2022-12-26T00:47:03.258Z,99804.88
2022-12-26T00:50:14.211Z,99806.94
2022-12-26T00:53:16.741Z,99820.66
2022-12-26T00:56:18.391Z,99810.00
2022-12-26T00:59:19.902Z,99826.31
2022-12-26T01:02:39.644Z,99832.06
2022-12-26T01:05:49.116Z,99832.06
2022-12-26T01:08:50.672Z,99829.56
2022-12-26T01:11:52.181Z,99824.47
2022-12-26T01:14:57.183Z,99824.47
2022-12-26T01:18:00.088Z,99828.41
2022-12-26T01:21:05.036Z,99822.09
2022-12-26T01:24:06.719Z,99830.44
2022-12-26T01:27:09.506Z,99823.31
2022-12-26T01:30:12.542Z,99829.59
2022-12-26T01:33:14.087Z,99831.66
2022-12-26T01:36:16.877Z,99825.38
2022-12-26T01:39:18.389Z,99830.97
2022-12-26T01:42:23.433Z,99830.97
2022-12-26T01:45:24.870Z,99836.56
2022-12-26T01:48:34.344Z,99852.03
2022-12-26T01:51:40.210Z,99842.19
2022-12-26T01:54:46.309Z,99859.50
2022-12-26T01:57:55.503Z,99845.06
2022-12-26T02:00:57.264Z,99849.84
2022-12-26T02:04:20.780Z,99854.41
2022-12-26T02:07:23.410Z,99862.75
2022-12-26T02:10:28.233Z,99856.47
2022-12-26T02:13:30.711Z,99853.09
2022-12-26T02:16:35.257Z,99850.38
2022-12-26T02:20:01.928Z,99862.09
2022-12-26T02:23:37.347Z,99853.25
2022-12-26T02:27:03.856Z,99870.59
2022-12-26T02:30:24.166Z,99868.19
2022-12-26T02:33:37.523Z,99870.06
2022-12-26T02:36:50.927Z,99864.66
2022-12-26T02:39:52.393Z,99871.47
2022-12-26T02:43:06.534Z,99867.72
2022-12-26T02:46:44.968Z,99862.47
2022-12-26T02:50:10.924Z,99865.53
2022-12-26T02:53:33.661Z,99863.66
2022-12-26T02:57:00.685Z,99861.97
2022-12-26T03:00:22.865Z,99870.28
2022-12-26T03:03:48.675Z,99868.59
2022-12-26T03:07:14.962Z,99865.88
2022-12-26T03:10:41.801Z,99881.50
2022-12-26T03:13:45.696Z,99866.25
2022-12-26T03:17:11.472Z,99876.25
2022-12-26T03:20:25.853Z,99864.72
2022-12-26T03:23:28.629Z,99861.81
2022-12-26T03:26:40.633Z,99866.59
2022-12-26T03:30:14.363Z,99860.31
2022-12-26T03:33:36.788Z,99860.31
2022-12-26T03:36:59.775Z,99868.44
2022-12-26T03:40:38.814Z,99863.22
2022-12-26T03:44:05.972Z,99861.69
2022-12-26T03:48:04.588Z,99867.13
2022-12-26T03:51:41.952Z,99855.44
2022-12-26T03:55:15.185Z,99872.72
2022-12-26T03:58:40.517Z,99884.41
2022-12-26T04:02:04.000Z,99885.44
2022-12-26T04:05:27.460Z,99890.69
2022-12-26T04:08:56.676Z,99890.84
2022-12-26T04:12:19.800Z,99909.69
2022-12-26T04:16:04.249Z,99898.84
2022-12-26T04:19:36.296Z,99883.22
2022-12-26T04:23:09.670Z,99888.47
2022-12-26T04:26:38.646Z,99887.28
2022-12-26T04:29:59.014Z,99887.28
2022-12-26T04:33:32.591Z,99889.47
2022-12-26T04:37:00.986Z,99899.13
2022-12-26T04:40:23.855Z,99897.94
2022-12-26T04:43:51.308Z,99893.34
2022-12-26T04:46:55.821Z,99899.25
2022-12-26T04:50:12.582Z,99891.31
2022-12-26T04:53:14.943Z,99884.50
2022-12-26T04:56:17.152Z,99876.34
2022-12-26T04:59:19.389Z,99891.44
2022-12-26T05:02:39.452Z,99906.88
2022-12-26T05:06:03.039Z,99904.84
2022-12-26T05:09:22.910Z,99906.72
2022-12-26T05:12:24.385Z,99904.00
2022-12-26T05:15:25.911Z,99916.53
2022-12-26T05:18:45.950Z,99924.69
2022-12-26T05:22:06.190Z,99927.41
2022-12-26T05:25:38.991Z,99936.22
2022-12-26T05:28:43.578Z,99945.56
2022-12-26T05:31:45.145Z,99949.13
2022-12-26T05:34:47.678Z,99945.56
2022-12-26T05:37:49.187Z,99950.16
2022-12-26T05:40:50.654Z,99944.72
2022-12-26T05:43:52.143Z,99951.81
2022-12-26T05:46:53.688Z,99952.03
2022-12-26T05:49:55.151Z,99947.59
2022-12-26T05:52:58.186Z,99946.59
2022-12-26T05:56:21.879Z,99957.44
2022-12-26T05:59:23.361Z,99961.16
2022-12-26T06:02:24.888Z,99962.88
2022-12-26T06:05:26.658Z,99958.28
2022-12-26T06:08:28.431Z,99946.41
2022-12-26T06:11:29.988Z,99946.41
2022-12-26T06:14:31.471Z,99953.53
2022-12-26T06:17:33.013Z,99945.03
2022-12-26T06:20:34.536Z,99946.72
2022-12-26T06:23:36.741Z,99961.13
2022-12-26T06:26:38.194Z,99958.25
2022-12-26T06:29:39.711Z,99957.22
2022-12-26T06:32:41.170Z,99958.09
2022-12-26T06:35:42.768Z,99971.47
2022-12-26T06:38:44.543Z,99972.31
2022-12-26T06:41:46.065Z,99976.91
2022-12-26T06:44:47.523Z,99979.63
2022-12-26T06:47:49.042Z,99977.75
2022-12-26T06:50:56.570Z,99976.91
2022-12-26T06:54:00.522Z,99976.75
2022-12-26T06:57:01.998Z,99973.34
2022-12-26T07:00:04.036Z,99964.16
2022-12-26T07:03:05.584Z,99971.31
2022-12-26T07:06:20.471Z,99969.44
2022-12-26T07:09:21.959Z,99976.91
2022-12-26T07:12:23.514Z,99981.50
2022-12-26T07:15:25.118Z,99991.50
2022-12-26T07:18:26.674Z,99975.38
2022-12-26T07:21:36.349Z,99978.94
2022-12-26T07:24:41.431Z,99981.84
2022-12-26T07:27:42.886Z,99988.13
2022-12-26T07:30:50.761Z,99986.25
2022-12-26T07:33:54.328Z,99994.59
2022-12-26T07:36:55.943Z,100014.59
2022-12-26T07:39:59.360Z,100007.47
2022-12-26T07:43:01.110Z,100002.03
2022-12-26T07:46:02.689Z,100003.03
2022-12-26T07:49:04.288Z,100023.94
2022-12-26T07:52:05.879Z,100025.63
2022-12-26T07:55:08.968Z,100040.22
2022-12-26T07:58:10.497Z,100038.69
2022-12-26T08:01:12.088Z,100037.84
2022-12-26T08:04:14.795Z,100024.44
2022-12-26T08:07:16.295Z,100031.94
2022-12-26T08:10:17.924Z,100033.78
2022-12-26T08:13:19.470Z,100027.50
2022-12-26T08:16:21.643Z,100023.94
2022-12-26T08:19:23.146Z,100035.84
2022-12-26T08:22:24.668Z,100037.53
2022-12-26T08:25:26.170Z,100022.44
2022-12-26T08:28:27.650Z,100018.88
2022-12-26T08:31:29.251Z,100010.88
2022-12-26T08:34:35.165Z,100025.31
2022-12-26T08:37:36.684Z,100026.50
2022-12-26T08:40:45.260Z,100027.53
2022-12-26T08:47:16.660Z,100039.41
2022-12-26T08:50:18.191Z,100031.44
2022-12-26T08:53:19.705Z,100033.31
2022-12-26T08:56:24.672Z,100030.59
2022-12-26T08:59:26.147Z,100025.16
2022-12-26T09:02:27.743Z,100035.19
2022-12-26T09:05:31.243Z,100031.44
2022-12-26T09:08:36.681Z,100021.59
2022-12-26T09:11:42.332Z,100036.00
2022-12-26T09:14:43.835Z,100050.78
2022-12-26T09:17:45.435Z,100054.31
2022-12-26T09:20:46.985Z,100046.34
2022-12-26T09:23:48.530Z,100051.97
2022-12-26T09:26:50.032Z,100046.53
2022-12-26T09:29:51.542Z,100052.97
2022-12-26T09:32:53.928Z,100061.97
2022-12-26T09:36:03.078Z,100057.41
2022-12-26T09:39:06.606Z,100060.25
2022-12-26T09:42:34.138Z,100066.53
2022-12-26T09:45:52.475Z,100062.13
2022-12-26T09:48:58.944Z,100057.91
2022-12-26T09:52:05.216Z,100043.66
2022-12-26T09:55:29.501Z,100046.19
2022-12-26T09:58:32.476Z,100039.25
2022-12-26T10:01:36.623Z,100048.22
2022-12-26T10:04:38.282Z,100035.69
2022-12-26T10:07:39.739Z,100042.31
2022-12-26T10:10:56.288Z,100042.31
2022-12-26T10:14:39.810Z,100061.63
2022-12-26T10:18:26.189Z,100059.75
2022-12-26T10:21:46.369Z,100060.59
2022-12-26T10:24:49.919Z,100055.34
2022-12-26T10:27:51.744Z,100060.44
2022-12-26T10:30:56.908Z,100055.69
2022-12-26T10:34:23.186Z,100056.03
2022-12-26T10:37:32.979Z,100047.06
2022-12-26T10:40:39.217Z,100050.28
2022-12-26T10:43:45.526Z,100029.41
2022-12-26T10:47:11.541Z,100036.19
2022-12-26T10:50:31.331Z,100034.81
2022-12-26T10:53:35.769Z,100023.97
2022-12-26T10:56:37.588Z,100038.22
2022-12-26T10:59:44.236Z,100036.19
2022-12-26T11:02:46.114Z,100037.88
2022-12-26T11:06:09.511Z,100046.53
2022-12-26T11:09:39.364Z,100040.91
2022-12-26T11:12:50.063Z,100047.22
2022-12-26T11:15:53.267Z,100043.47
2022-12-26T11:18:56.062Z,100040.59
2022-12-26T11:22:18.800Z,100052.09
2022-12-26T11:25:34.980Z,100051.09
2022-12-26T11:28:37.758Z,100052.97
2022-12-26T11:31:42.614Z,100049.06
2022-12-26T11:34:47.845Z,100032.78
2022-12-26T11:37:57.851Z,100032.59
2022-12-26T11:41:18.021Z,100031.75
2022-12-26T11:44:45.352Z,100024.97
2022-12-26T11:47:47.114Z,100014.97
2022-12-26T11:50:48.695Z,100011.41
2022-12-26T11:53:50.130Z,100021.22
2022-12-26T11:57:02.247Z,100022.91
2022-12-26T12:00:20.126Z,100020.88
2022-12-26T12:03:42.400Z,100025.31
2022-12-26T12:07:09.335Z,100030.53
2022-12-26T12:10:38.450Z,100025.97
2022-12-26T12:13:51.997Z,100027.00
2022-12-26T12:17:26.416Z,100023.44
2022-12-26T12:20:32.294Z,100031.59
2022-12-26T12:24:01.545Z,100031.22
2022-12-26T12:27:24.737Z,100008.84
2022-12-26T12:30:40.710Z,100020.53
2022-12-26T12:33:46.097Z,100021.41
2022-12-26T12:37:23.582Z,100010.53
2022-12-26T12:40:56.670Z,100006.78
2022-12-26T12:44:06.133Z,100000.53
2022-12-26T12:47:23.073Z,100008.47
2022-12-26T12:50:44.709Z,100004.91
2022-12-26T12:54:16.204Z,99999.50
2022-12-26T12:57:27.293Z,99999.50
2022-12-26T13:00:39.347Z,99995.94
2022-12-26T13:03:57.870Z,100003.25
2022-12-26T13:07:07.535Z,100003.41
2022-12-26T13:10:19.657Z,100014.09
2022-12-26T13:13:30.063Z,100009.50
2022-12-26T13:16:43.284Z,100005.97
2022-12-26T13:19:52.635Z,100006.78
2022-12-26T13:23:25.067Z,100002.03
2022-12-26T13:26:34.383Z,100013.75
2022-12-26T13:29:39.389Z,100013.75
2022-12-26T13:32:44.888Z,100012.06
2022-12-26T13:36:03.732Z,100013.75
2022-12-26T13:39:08.075Z,100005.59
2022-12-26T13:42:28.254Z,100022.06
2022-12-26T13:45:35.705Z,100006.44
2022-12-26T13:48:37.215Z,100023.75
2022-12-26T13:51:50.525Z,100075.84
2022-12-26T13:54:51.958Z,100080.59
2022-12-26T13:58:19.744Z,100070.25
2022-12-26T14:01:21.264Z,100070.41
2022-12-26T14:05:06.232Z,100065.31
2022-12-26T14:08:14.706Z,100071.41
2022-12-26T14:11:42.616Z,100084.16
2022-12-26T14:14:59.285Z,100084.16
2022-12-26T14:18:03.638Z,100088.91
2022-12-26T14:21:42.809Z,100099.41
2022-12-26T14:25:04.705Z,100102.13
2022-12-26T14:28:21.572Z,100111.78
2022-12-26T14:31:29.159Z,100121.97
2022-12-26T14:34:46.064Z,100133.72
2022-12-26T14:38:06.126Z,100143.88
2022-12-26T14:41:33.258Z,100146.59
2022-12-26T14:44:34.658Z,100169.66
2022-12-26T14:47:49.444Z,100181.22
2022-12-26T14:51:04.463Z,100192.22
2022-12-26T14:54:16.777Z,100196.81
2022-12-26T14:57:43.166Z,100195.13
2022-12-26T15:00:45.079Z,100205.16
2022-12-26T15:03:52.800Z,100198.84
2022-12-26T15:07:20.386Z,100195.97
2022-12-26T15:10:34.836Z,100213.94
2022-12-26T15:13:51.259Z,100217.69
2022-12-26T15:17:07.028Z,100235.69
2022-12-26T15:20:20.604Z,100241.09
2022-12-26T15:23:24.960Z,100245.69
2022-12-26T15:26:43.969Z,100244.69
2022-12-26T15:30:00.682Z,100260.09
2022-12-26T15:33:28.659Z,100267.41
2022-12-26T15:36:48.450Z,100253.69
2022-12-26T15:40:14.974Z,100261.81
2022-12-26T15:43:25.663Z,100267.06
2022-12-26T15:46:32.212Z,100279.47
2022-12-26T15:49:39.632Z,100294.91
2022-12-26T15:53:09.863Z,100302.56
2022-12-26T15:56:40.695Z,100308.69
2022-12-26T16:00:12.701Z,100321.22
2022-12-26T16:03:20.630Z,100333.63
2022-12-26T16:06:44.246Z,100327.00
2022-12-26T16:09:52.782Z,100326.00
2022-12-26T16:13:03.202Z,100341.97
2022-12-26T16:16:04.987Z,100340.94
2022-12-26T16:19:22.905Z,100347.22
2022-12-26T16:22:43.586Z,100356.25
2022-12-26T16:25:49.832Z,100368.63
2022-12-26T16:28:52.304Z,100379.50
2022-12-26T16:32:02.528Z,100389.00
2022-12-26T16:35:06.746Z,100401.59
2022-12-26T16:38:16.807Z,100395.13
2022-12-26T16:41:25.473Z,100402.25
2022-12-26T16:44:31.111Z,100410.38
2022-12-26T16:47:33.170Z,100416.00
2022-12-26T16:50:44.041Z,100404.97
2022-12-26T16:53:45.641Z,100403.13
2022-12-26T16:56:52.312Z,100401.78
2022-12-26T16:59:59.267Z,100408.06
2022-12-26T17:03:03.045Z,100404.50
2022-12-26T17:06:07.570Z,100407.06
2022-12-26T17:09:12.184Z,100412.50
2022-12-26T17:12:27.776Z,100410.63
2022-12-26T17:15:36.174Z,100412.50
2022-12-26T17:18:52.615Z,100418.09
2022-12-26T17:22:17.762Z,100434.22
2022-12-26T17:25:26.414Z,100426.22
2022-12-26T17:28:28.763Z,100439.81
2022-12-26T17:31:44.540Z,100453.41
2022-12-26T17:34:46.259Z,100448.16
2022-12-26T17:37:51.241Z,100451.72
2022-12-26T17:40:55.653Z,100461.75
2022-12-26T17:43:57.769Z,100460.81
2022-12-26T17:47:02.821Z,100462.56
2022-12-26T17:50:04.602Z,100473.56
2022-12-26T17:53:22.756Z,100476.16
2022-12-26T17:56:27.084Z,100470.84
2022-12-26T17:59:28.652Z,100467.16
2022-12-26T18:02:30.206Z,100462.69
2022-12-26T18:05:32.597Z,100461.75
2022-12-26T18:08:37.217Z,100465.28
2022-12-26T18:11:38.727Z,100465.41
2022-12-26T18:14:41.338Z,100466.25
2022-12-26T18:17:43.359Z,100467.28
2022-12-26T18:20:44.847Z,100477.84
2022-12-26T18:23:46.365Z,100485.00
2022-12-26T18:26:49.668Z,100485.66
2022-12-26T18:29:51.400Z,100482.09
2022-12-26T18:32:54.017Z,100485.50
2022-12-26T18:35:55.769Z,100480.06
2022-12-26T18:38:57.318Z,100487.38
2022-12-26T18:41:58.824Z,100502.66
2022-12-26T18:45:00.402Z,100502.50
2022-12-26T18:48:02.067Z,100497.91
2022-12-26T18:51:06.121Z,100506.91
2022-12-26T18:54:07.703Z,100507.59
2022-12-26T18:57:20.093Z,100522.72
2022-12-26T19:00:22.032Z,100522.72
2022-12-26T19:03:23.500Z,100518.13
2022-12-26T19:06:28.923Z,100513.25
2022-12-26T19:09:30.447Z,100522.25
2022-12-26T19:12:31.926Z,100528.38
2022-12-26T19:15:35.940Z,100534.31
2022-12-26T19:18:37.529Z,100535.00
2022-12-26T19:21:41.774Z,100544.69
2022-12-26T19:24:44.435Z,100550.81
2022-12-26T19:27:47.639Z,100566.09
2022-12-26T19:30:49.148Z,100562.53
2022-12-26T19:33:50.621Z,100566.09
2022-12-26T19:36:52.135Z,100556.06
2022-12-26T19:39:53.620Z,100567.78
2022-12-26T19:42:55.092Z,100577.66
2022-12-26T19:46:05.059Z,100581.09
2022-12-26T19:49:06.582Z,100584.81
2022-12-26T19:52:09.979Z,100578.38
2022-12-26T19:55:12.317Z,100580.91
2022-12-26T19:58:13.821Z,100581.94
2022-12-26T20:01:18.759Z,100594.16
2022-12-26T20:04:20.610Z,100601.47
2022-12-26T20:07:22.124Z,100596.03
2022-12-26T20:10:23.614Z,100597.75
2022-12-26T20:13:25.139Z,100599.59
2022-12-26T20:17:03.781Z,100606.75
2022-12-26T20:19:50.163Z,100615.75
2022-12-26T20:22:53.404Z,100613.88
2022-12-26T20:25:57.702Z,100622.72
2022-12-26T20:29:03.594Z,100624.41
2022-12-26T20:32:05.150Z,100628.16
2022-12-26T20:35:06.959Z,100634.44
2022-12-26T20:38:08.434Z,100638.91
2022-12-26T20:41:11.279Z,100634.31
2022-12-26T20:44:14.519Z,100628.69
2022-12-26T20:47:17.342Z,100637.72
2022-12-26T20:50:19.251Z,100650.28
2022-12-26T20:53:20.771Z,100649.25
2022-12-26T20:56:22.276Z,100643.81
2022-12-26T20:59:23.880Z,100655.72
2022-12-26T21:02:25.543Z,100663.72
2022-12-26T21:05:27.226Z,100678.16
2022-12-26T21:08:28.709Z,100682.75
2022-12-26T21:11:33.231Z,100687.16
2022-12-26T21:14:34.781Z,100689.88
2022-12-26T21:17:36.846Z,100698.75
2022-12-26T21:20:38.320Z,100697.91
2022-12-26T21:23:40.154Z,100707.06
2022-12-26T21:26:42.697Z,100696.34
2022-12-26T21:29:44.324Z,100705.50
2022-12-26T21:32:46.226Z,100714.50
2022-12-26T21:35:50.828Z,100705.50
2022-12-26T21:38:53.396Z,100716.38
2022-12-26T21:41:54.942Z,100716.38
2022-12-26T21:44:56.448Z,100730.16
2022-12-26T21:47:57.952Z,100726.56
2022-12-26T21:50:59.419Z,100731.00
2022-12-26T21:54:19.503Z,100733.88
2022-12-26T21:57:22.257Z,100735.75
2022-12-26T22:00:24.115Z,100741.34
2022-12-26T22:03:44.355Z,100744.94
2022-12-26T22:06:45.964Z,100741.34
2022-12-26T22:09:47.444Z,100742.50
2022-12-26T22:12:57.967Z,100743.53
2022-12-26T22:16:06.880Z,100751.69
2022-12-26T22:19:09.075Z,100755.44
2022-12-26T22:22:10.630Z,100753.91
2022-12-26T22:25:12.605Z,100764.78
2022-12-26T22:28:16.569Z,100761.19
2022-12-26T22:31:31.613Z,100767.63
2022-12-26T22:34:33.241Z,100781.38
2022-12-26T22:37:34.737Z,100794.31
2022-12-26T22:40:36.475Z,100795.47
2022-12-26T22:43:37.913Z,100797.50
2022-12-26T22:46:39.456Z,100798.50
2022-12-26T22:49:40.972Z,100797.81
2022-12-26T22:52:42.844Z,100800.81
2022-12-26T22:55:50.596Z,100806.13
2022-12-26T22:58:53.894Z,100808.31
2022-12-26T23:01:55.547Z,100808.47
2022-12-26T23:04:57.464Z,100811.31
2022-12-26T23:07:59.119Z,100817.63
2022-12-26T23:11:00.884Z,100811.50
2022-12-26T23:14:05.398Z,100821.66
2022-12-26T23:17:10.549Z,100824.53
2022-12-26T23:20:33.311Z,100823.53
2022-12-26T23:23:35.053Z,100824.84
2022-12-26T23:26:36.530Z,100813.28
2022-12-26T23:29:56.699Z,100821.75
2022-12-26T23:32:58.417Z,100820.19
2022-12-26T23:36:00.015Z,100806.91
2022-12-26T23:39:01.648Z,100820.81
2022-12-26T23:42:03.139Z,100825.41
2022-12-26T23:45:05.468Z,100823.84
2022-12-26T23:48:06.915Z,100834.84
2022-12-26T23:51:08.666Z,100826.84
2022-12-26T23:54:10.287Z,100838.88
2022-12-26T23:57:11.823Z,100840.91
